Latest Weather Observations for Tewantin

IDQ60901

Issued at 2:11 pm EST Friday 6 March 2015 (issued every 10 minutes, with the page automatically refreshed every 10 minutes)

About weather observations | Map of Brisbane area stations | Latest observations for Brisbane area | Other Formats
Station Details ID: 040908 Name: TEWANTIN RSL PARK Lat: -26.39 Lon: 153.04 Height: 6.4 m
Data from the previous 72 hours. | See also: Recent months at Tewantin
Date/Time
EST
Tmp

°C
App
Tmp
°C
Dew
Point
°C
Rel
Hum
%
Delta-T

°C
Wind Press
QNH
hPa
Press
MSL
hPa
Rain
since
9 am
mm
Dir
 
Spd
km/h
Gust
km/h
Spd
kts
Gust
kts
06/02:00pm 26.3 26.5 20.2 69 4.0 ESE 19 26 10 14 1007.2 1007.2 0.0
06/01:30pm 26.4 27.4 20.3 69 4.0 SE 15 22 8 12 1007.5 1007.5 0.0
06/01:00pm 26.6 27.5 20.0 67 4.3 SE 15 22 8 12 1008.0 1008.0 0.0
06/12:30pm 26.2 27.7 20.5 71 3.7 SE 13 20 7 11 1008.3 1008.3 0.0
06/12:00pm 26.4 27.6 20.0 68 4.2 SE 13 22 7 12 1008.4 1008.4 0.0
06/11:30am 26.4 27.6 20.7 71 3.7 ESE 15 24 8 13 1008.9 1008.9 0.0
06/11:00am 26.0 27.7 21.0 74 3.3 SE 13 20 7 11 1009.3 1009.3 0.0
06/10:30am 25.7 26.7 20.3 72 3.5 SE 15 24 8 13 1009.4 1009.4 0.0
06/10:00am 25.8 27.5 20.1 71 3.7 SE 11 19 6 10 1009.6 1009.6 0.0
06/09:30am 25.9 27.2 20.2 71 3.7 SE 13 22 7 12 1009.5 1009.5 0.0
06/09:00am 25.8 26.8 19.4 67 4.1 SE 13 20 7 11 1009.5 1009.5 0.0
06/08:30am 25.9 26.3 19.8 69 4.0 SE 17 26 9 14 1009.1 1009.1 0.0
06/08:00am 25.5 25.8 19.6 70 3.8 SE 17 28 9 15 1008.9 1008.9 0.0
06/07:30am 25.6 26.3 19.7 70 3.8 SE 15 24 8 13 1008.6 1008.6 0.0
06/07:00am 25.5 25.6 19.2 68 4.0 SE 17 28 9 15 1008.5 1008.5 0.0
06/06:30am 25.4 25.5 19.1 68 4.0 SE 17 35 9 19 1008.4 1008.4 0.0
06/06:00am 25.4 25.7 18.8 67 4.2 SE 15 24 8 13 1008.1 1008.1 0.0
06/05:30am 25.4 25.1 19.1 68 4.0 SSE 19 30 10 16 1007.8 1007.8 0.0
06/05:00am 25.5 25.4 19.6 70 3.8 SSE 19 35 10 19 1007.7 1007.7 0.0
06/04:30am 25.5 25.4 19.6 70 3.8 SSE 19 35 10 19 1007.6 1007.6 0.0
06/04:00am 25.8 25.4 19.4 67 4.1 SSE 20 35 11 19 1007.6 1007.6 0.0
06/03:30am 25.8 25.6 19.4 67 4.1 SSE 19 35 10 19 1007.2 1007.2 0.0
06/03:00am 25.9 25.3 19.8 69 4.0 SSE 22 37 12 20 1007.1 1007.1 0.0
06/02:30am 26.2 26.3 20.3 70 3.9 SSE 20 33 11 18 1007.0 1007.0 0.0
06/02:00am 26.4 25.5 19.8 67 4.3 SSE 24 39 13 21 1006.9 1006.9 0.0
06/01:30am 26.1 27.8 23.0 83 2.1 SSE 19 32 10 17 1006.8 1006.8 0.0
06/01:00am 26.1 26.8 22.2 79 2.6 SSE 22 37 12 20 1006.8 1006.8 0.0
06/12:30am 26.9 28.1 23.2 80 2.5 SSE 22 35 12 19 1006.6 1006.6 0.0
06/12:00am 26.5 30.0 23.6 84 2.0 S 11 20 6 11 1006.1 1006.1 0.0
 
Date/Time
EST
Tmp

°C
App
Tmp
°C
Dew
Point
°C
Rel
Hum
%
Delta-T

°C
Wind Press
QNH
hPa
Press
MSL
hPa
Rain
since
9 am
mm
Dir
 
Spd
km/h
Gust
km/h
Spd
kts
Gust
kts
05/11:30pm 25.2 29.6 23.4 90 1.2 WNW 6 9 3 5 1005.3 1005.3 0.0
05/11:00pm 25.7 30.8 23.4 87 1.6 NW 2 11 1 6 1005.4 1005.4 0.0
05/10:30pm 26.2 30.3 23.3 84 2.0 NW 7 11 4 6 1005.4 1005.4 0.0
05/10:00pm 26.6 30.7 23.3 82 2.3 NNW 7 11 4 6 1005.6 1005.6 0.0
05/09:30pm 27.2 30.6 23.4 80 2.6 NNW 11 17 6 9 1005.7 1005.7 0.0
05/09:00pm 27.5 31.0 23.5 79 2.7 NNW 11 17 6 9 1005.4 1005.4 0.0
05/08:30pm 27.7 31.5 24.1 81 2.5 NNW 11 17 6 9 1005.0 1005.0 0.0
05/08:00pm 28.0 31.4 24.0 79 2.8 NNW 13 20 7 11 1004.6 1004.6 0.0
05/07:30pm 28.4 31.3 23.8 76 3.2 N 15 24 8 13 1004.4 1004.4 0.0
05/07:00pm 29.3 32.1 23.7 72 3.9 N 15 20 8 11 1004.1 1004.1 0.0
05/06:30pm 30.1 33.1 24.0 70 4.2 N 15 20 8 11 1003.5 1003.5 0.0
05/06:00pm 30.9 34.1 24.3 68 4.6 N 15 20 8 11 1003.2 1003.2 0.0
05/05:30pm 30.4 35.3 25.9 77 3.2 NNE 11 17 6 9 1002.9 1002.9 0.0
05/05:00pm 29.9 33.7 25.9 79 2.8 NNE 17 24 9 13 1002.9 1002.9 0.0
05/04:30pm 30.2 33.4 25.0 73 3.7 NNE 17 24 9 13 1002.9 1002.9 0.0
05/04:00pm 30.5 33.3 24.9 72 3.9 NNE 19 26 10 14 1003.0 1003.0 0.0
05/03:30pm 31.0 34.2 24.9 70 4.3 NNE 17 26 9 14 1003.4 1003.4 0.0
05/03:00pm 31.1 34.1 24.7 68 4.5 NNE 17 22 9 12 1003.7 1003.7 0.0
05/02:30pm 32.2 35.5 24.5 64 5.4 NNE 15 20 8 11 1004.0 1004.0 0.0
05/02:00pm 33.9 36.5 22.0 49 8.1 N 11 20 6 11 1004.6 1004.6 0.0
05/01:30pm 34.0 36.3 22.1 50 8.1 NNW 13 22 7 12 1005.2 1005.2 0.0
05/01:00pm 33.2 35.3 21.7 51 7.8 NW 13 20 7 11 1005.7 1005.7 0.0
05/12:30pm 33.6 37.2 23.0 54 7.3 WNW 9 17 5 9 1006.3 1006.3 0.0
05/12:00pm 33.0 36.5 23.6 57 6.5 WNW 11 19 6 10 1006.9 1006.9 0.0
05/11:30am 32.1 35.2 22.2 56 6.7 WNW 9 19 5 10 1007.6 1007.6 0.0
05/11:00am 31.5 34.6 22.2 57 6.3 W 9 17 5 9 1008.0 1008.0 0.0
05/10:30am 30.1 33.1 22.0 62 5.5 NW 9 15 5 8 1008.3 1008.3 0.0
05/10:00am 29.8 32.5 22.8 66 4.8 NNW 13 24 7 13 1008.8 1008.8 0.0
05/09:30am 28.9 31.4 21.7 65 4.8 NW 11 26 6 14 1008.9 1008.9 0.0
05/09:00am 27.6 28.7 21.2 68 4.3 NNW 17 26 9 14 1009.1 1009.1 0.0
05/08:30am 27.4 31.0 22.3 73 3.4 NNW 7 13 4 7 1009.3 1009.3 0.0
05/08:00am 26.1 29.4 22.6 81 2.4 NNW 9 13 5 7 1009.4 1009.4 0.0
05/07:30am 25.2 28.3 22.1 83 2.1 NNW 9 13 5 7 1009.5 1009.5 0.0
05/07:00am 24.3 27.7 21.6 85 1.8 NW 6 13 3 7 1009.5 1009.5 0.0
05/06:30am 22.9 27.1 21.7 93 0.8 NW 2 6 1 3 1009.5 1009.5 0.0
05/06:00am 21.8 26.1 21.1 96 0.5 CALM 0 0 0 0 1009.4 1009.4 0.0
05/05:30am 21.7 25.9 21.0 96 0.5 CALM 0 6 0 3 1009.1 1009.1 0.0
05/05:00am 21.6 25.0 20.9 96 0.5 NNW 4 7 2 4 1008.9 1008.9 0.0
05/04:30am 21.9 25.0 21.1 95 0.5 N 6 9 3 5 1008.7 1008.7 0.0
05/04:00am 22.1 25.2 21.1 94 0.7 N 6 9 3 5 1008.8 1008.8 0.0
05/03:30am 22.3 25.3 20.8 91 1.0 NNW 6 7 3 4 1008.9 1008.9 0.0
05/03:00am 22.3 25.0 20.6 90 1.1 NNW 7 11 4 6 1009.1 1009.1 0.0
05/02:30am 22.5 25.6 21.0 91 1.0 NW 6 11 3 6 1009.3 1009.3 0.0
05/02:00am 22.2 25.5 20.8 92 0.9 NNW 4 7 2 4 1009.9 1009.9 0.0
05/01:30am 22.2 25.8 20.5 90 1.1 NW 2 6 1 3 1010.4 1010.4 0.0
05/01:00am 22.3 25.4 20.2 88 1.4 NW 4 7 2 4 1010.8 1010.8 0.0
05/12:30am 22.5 25.6 20.2 87 1.5 WNW 4 7 2 4 1011.2 1011.2 0.0
05/12:00am 22.8 25.2 20.1 85 1.7 NW 7 9 4 5 1011.6 1011.6 0.0
 
Date/Time
EST
Tmp

°C
App
Tmp
°C
Dew
Point
°C
Rel
Hum
%
Delta-T

°C
Wind Press
QNH
hPa
Press
MSL
hPa
Rain
since
9 am
mm
Dir
 
Spd
km/h
Gust
km/h
Spd
kts
Gust
kts
04/11:30pm 22.7 25.8 20.2 86 1.6 NW 4 9 2 5 1012.0 1012.0 0.0
04/11:00pm 22.6 26.0 20.1 86 1.6 NW 2 7 1 4 1012.2 1012.2 0.0
04/10:30pm 22.8 25.8 20.1 85 1.7 NW 4 7 2 4 1012.3 1012.3 0.0
04/10:00pm 23.3 26.7 20.2 83 2.0 WNW 2 6 1 3 1012.4 1012.4 0.0
04/09:30pm 23.6 27.0 20.1 81 2.3 WNW 2 7 1 4 1012.4 1012.4 0.0
04/09:00pm 24.2 28.0 20.1 78 2.7 CALM 0 0 0 0 1012.5 1012.5 0.0
04/08:30pm 24.6 27.3 20.3 77 2.8 N 6 7 3 4 1012.6 1012.6 0.0
04/08:00pm 24.7 27.5 20.4 77 2.8 N 6 7 3 4 1012.3 1012.3 0.0
04/07:30pm 24.8 27.6 20.5 77 2.8 N 6 9 3 5 1012.0 1012.0 0.0
04/07:00pm 25.0 27.4 20.0 74 3.2 N 7 9 4 5 1011.8 1011.8 0.0
04/06:30pm 25.3 27.6 19.9 72 3.5 N 7 11 4 6 1011.6 1011.6 0.0
04/06:00pm 26.0 28.5 21.0 74 3.3 NNE 9 13 5 7 1011.5 1011.5 0.0
04/05:30pm 26.3 28.2 20.6 71 3.7 NNE 11 17 6 9 1011.3 1011.3 0.0
04/05:00pm 26.6 29.0 20.9 71 3.8 NE 9 19 5 10 1011.2 1011.2 0.0
04/04:30pm 26.7 28.0 20.1 67 4.3 NE 13 20 7 11 1011.1 1011.1 0.0
04/04:00pm 27.3 28.5 19.9 64 4.8 ENE 13 22 7 12 1011.1 1011.1 0.0
04/03:30pm 27.8 29.3 19.8 61 5.2 NE 11 19 6 10 1011.1 1011.1 0.0
04/03:00pm 27.7 28.1 18.1 56 6.1 NNE 13 17 7 9 1011.2 1011.2 0.0
04/02:30pm 28.2 29.4 19.1 57 5.9 NE 11 15 6 8 1011.5 1011.5 0.0
04/02:00pm 28.1 29.8 20.1 62 5.2 NE 11 17 6 9 1011.8 1011.8 0.0
04/01:30pm 28.1 29.5 19.6 60 5.5 NE 11 17 6 9 1012.4 1012.4 0.0
04/01:00pm 28.2 28.8 18.6 56 6.2 NE 13 19 7 10 1012.7 1012.7 0.0
04/12:30pm 27.7 28.5 18.1 56 6.1 ENE 11 17 6 9 1013.0 1013.0 0.0
04/12:00pm 28.4 29.5 18.8 56 6.2 NE 11 15 6 8 1013.4 1013.4 0.0
04/11:30am 28.3 29.6 18.4 55 6.3 ENE 9 15 5 8 1013.7 1013.7 0.0
04/11:00am 27.1 28.8 18.4 59 5.5 SE 7 11 4 6 1014.1 1014.1 0.0
04/10:30am 26.8 28.4 17.8 57 5.7 SSE 6 9 3 5 1014.5 1014.5 0.0
04/10:00am 27.3 28.8 18.9 60 5.4 S 9 13 5 7 1014.8 1014.8 0.0
04/09:30am 26.5 28.2 18.1 60 5.3 SSW 6 13 3 7 1014.7 1014.7 0.0
04/09:00am 26.6 28.5 18.5 61 5.2 SE 6 13 3 7 1014.6 1014.6 0.0
04/08:30am 26.4 28.2 18.8 63 4.9 SSE 7 13 4 7 1014.4 1014.4 0.0
04/08:00am 25.9 28.1 19.5 68 4.1 S 7 11 4 6 1014.3 1014.3 0.0
04/07:30am 24.5 27.7 19.8 75 3.0 SSW 2 9 1 5 1013.9 1013.9 0.0
04/07:00am 22.4 25.6 18.8 80 2.3 CALM 0 0 0 0 1013.7 1013.7 0.0
04/06:30am 20.5 23.7 18.8 90 1.1 CALM 0 0 0 0 1013.5 1013.5 0.0
04/06:00am 19.5 22.5 18.5 94 0.6 CALM 0 0 0 0 1013.2 1013.2 0.0
04/05:30am 19.7 22.8 18.7 94 0.6 CALM 0 0 0 0 1012.9 1012.9 0.0
04/05:00am 20.1 23.3 18.8 92 0.8 CALM 0 0 0 0 1012.8 1012.8 0.0
04/04:30am 20.3 23.5 18.8 91 0.9 CALM 0 0 0 0 1012.9 1012.9 0.0
04/04:00am 20.7 23.9 18.8 89 1.2 CALM 0 0 0 0 1012.8 1012.8 0.0
04/03:30am 21.1 24.3 18.9 87 1.4 CALM 0 0 0 0 1012.8 1012.8 0.0
04/03:00am 21.4 24.0 19.3 88 1.3 SSW 4 9 2 5 1013.0 1013.0 0.0
04/02:30am 21.4 24.7 19.1 87 1.5 CALM 0 0 0 0 1013.4 1013.4 0.0
04/02:00am 21.9 25.2 19.1 84 1.8 CALM 0 0 0 0 1013.7 1013.7 0.0
04/01:30am 22.1 24.4 19.5 85 1.7 SSW 6 9 3 5 1013.9 1013.9 0.0
04/01:00am 22.1 24.4 19.5 85 1.7 SSW 6 11 3 6 1014.3 1014.3 0.0
04/12:30am 22.0 25.0 19.2 84 1.8 SSW 2 9 1 5 1014.6 1014.6 0.0
04/12:00am 22.2 24.8 19.2 83 1.9 SSW 4 9 2 5 1014.9 1014.9 0.0
 
Date/Time
EST
Tmp

°C
App
Tmp
°C
Dew
Point
°C
Rel
Hum
%
Delta-T

°C
Wind Press
QNH
hPa
Press
MSL
hPa
Rain
since
9 am
mm
Dir
 
Spd
km/h
Gust
km/h
Spd
kts
Gust
kts
03/11:30pm 22.3 25.0 19.5 84 1.8 SSW 4 9 2 5 1015.2 1015.2 0.0
03/11:00pm 22.2 25.0 18.8 81 2.1 SW 2 7 1 4 1015.2 1015.2 0.0
03/10:30pm 22.4 25.6 18.8 80 2.3 CALM 0 0 0 0 1015.2 1015.2 0.0
03/10:00pm 22.4 25.6 18.8 80 2.3 CALM 0 0 0 0 1015.3 1015.3 0.0
03/09:30pm 22.6 25.7 18.6 78 2.5 CALM 0 0 0 0 1015.2 1015.2 0.0
03/09:00pm 23.4 25.3 18.9 76 2.9 S 7 9 4 5 1015.2 1015.2 0.0
03/08:30pm 23.5 26.0 19.0 76 2.9 SSW 4 7 2 4 1014.9 1014.9 0.0
03/08:00pm 24.7 26.5 18.4 68 4.0 SSE 6 7 3 4 1014.4 1014.4 0.0
03/07:30pm 24.8 26.5 18.5 68 4.0 SE 7 9 4 5 1014.2 1014.2 0.0
03/07:00pm 25.1 26.9 18.8 68 4.0 SE 7 13 4 7 1013.9 1013.9 0.0
03/06:30pm 25.3 27.3 19.2 69 3.9 ESE 7 15 4 8 1013.8 1013.8 0.0
03/06:00pm 25.7 26.3 18.6 65 4.5 SE 13 20 7 11 1013.7 1013.7 0.0
03/05:30pm 26.0 26.7 18.9 65 4.5 ESE 13 20 7 11 1013.5 1013.5 0.0
03/05:00pm 26.1 26.1 18.2 61 5.0 SE 15 22 8 12 1013.2 1013.2 0.0
03/04:30pm 26.6 27.2 18.5 61 5.2 SE 13 22 7 12 1013.1 1013.1 0.0
03/04:00pm 27.0 27.1 18.3 59 5.5 SE 15 26 8 14 1013.1 1013.1 0.0
03/03:30pm 27.1 26.6 17.8 56 5.9 SE 17 26 9 14 1012.9 1012.9 0.0
03/03:00pm 27.2 26.7 17.7 56 6.0 SE 17 28 9 15 1013.0 1013.0 0.0
03/02:30pm 27.3 26.9 18.0 56 5.9 SE 17 26 9 14 1013.2 1013.2 0.0

Latest Capital City Observations: Canberra | Sydney | Melbourne | Brisbane | Adelaide | Perth | Hobart | Darwin

Other Formats:

Comma delimited format used in spreadsheet applications
http://www.bom.gov.au/fwo/IDQ60901/IDQ60901.94570.axf

JavaScript Object Notation format (JSON) in row-major order
http://www.bom.gov.au/fwo/IDQ60901/IDQ60901.94570.json